createdAt,value
2019-02-12T00:01:39.892Z,17.27
2019-02-12T00:04:10.450Z,16.97
2019-02-12T00:06:40.880Z,17.20
2019-02-12T00:09:12.784Z,17.80
2019-02-12T00:11:43.342Z,17.00
2019-02-12T00:14:14.205Z,17.87
2019-02-12T00:16:44.604Z,17.70
2019-02-12T00:19:15.154Z,15.53
2019-02-12T00:21:45.862Z,18.70
2019-02-12T00:24:16.272Z,18.70
2019-02-12T00:26:47.018Z,19.53
2019-02-12T00:29:17.442Z,19.27
2019-02-12T00:31:47.919Z,17.07
2019-02-12T00:34:18.288Z,15.67
2019-02-12T00:36:48.686Z,14.17
2019-02-12T00:39:19.378Z,16.93
2019-02-12T00:41:49.805Z,14.30
2019-02-12T00:44:20.174Z,16.27
2019-02-12T00:46:50.835Z,16.13
2019-02-12T00:49:21.238Z,15.10
2019-02-12T00:51:51.648Z,13.67
2019-02-12T00:54:21.975Z,14.77
2019-02-12T00:56:52.442Z,15.03
2019-02-12T00:59:23.085Z,15.60
2019-02-12T01:01:53.811Z,16.70
2019-02-12T01:04:24.213Z,14.87
2019-02-12T01:06:54.654Z,15.43
2019-02-12T01:09:25.012Z,15.27
2019-02-12T01:11:55.404Z,13.23
2019-02-12T01:14:25.783Z,12.23
2019-02-12T01:16:56.183Z,10.10
2019-02-12T01:19:26.526Z,9.63
2019-02-12T01:21:57.086Z,8.60
2019-02-12T01:24:27.507Z,8.33
2019-02-12T01:26:58.015Z,8.10
2019-02-12T01:29:28.731Z,7.73
2019-02-12T01:31:59.332Z,9.53
2019-02-12T01:34:29.730Z,8.97
2019-02-12T01:37:00.302Z,9.23
2019-02-12T01:39:30.766Z,8.07
2019-02-12T01:42:01.124Z,8.97
2019-02-12T01:44:31.709Z,8.47
2019-02-12T01:47:02.350Z,9.30
2019-02-12T01:49:32.777Z,9.17
2019-02-12T01:52:03.126Z,10.43
2019-02-12T01:54:33.605Z,10.33
2019-02-12T01:57:04.592Z,9.47
2019-02-12T01:59:34.963Z,9.33
2019-02-12T02:02:05.446Z,7.83
2019-02-12T02:04:35.873Z,7.50
2019-02-12T02:07:06.517Z,8.53
2019-02-12T02:09:36.872Z,8.93
2019-02-12T02:12:07.240Z,7.83
2019-02-12T02:14:37.674Z,10.60
2019-02-12T02:17:08.057Z,8.40
2019-02-12T02:19:38.628Z,8.47
2019-02-12T02:22:09.054Z,8.13
2019-02-12T02:24:39.356Z,7.20
2019-02-12T02:27:10.476Z,7.37
2019-02-12T02:29:40.954Z,5.00
2019-02-12T02:32:11.366Z,4.67
2019-02-12T02:34:41.811Z,5.00
2019-02-12T02:37:12.529Z,4.60
2019-02-12T02:39:43.118Z,4.47
2019-02-12T02:42:13.675Z,4.83
2019-02-12T02:44:44.195Z,5.50
2019-02-12T02:47:14.587Z,5.60
2019-02-12T02:49:45.758Z,5.47
2019-02-12T02:52:16.279Z,4.53
2019-02-12T02:54:46.728Z,4.60
2019-02-12T02:57:17.218Z,4.63
2019-02-12T02:59:47.927Z,4.30
2019-02-12T03:02:18.321Z,4.17
2019-02-12T03:04:48.674Z,3.20
2019-02-12T03:07:19.090Z,3.10
2019-02-12T03:09:49.829Z,3.60
2019-02-12T03:12:20.156Z,3.00
2019-02-12T03:14:50.613Z,2.70
2019-02-12T03:17:21.487Z,2.90
2019-02-12T03:19:51.860Z,2.23
2019-02-12T03:22:22.781Z,2.07
2019-02-12T03:24:53.204Z,2.73
2019-02-12T03:27:23.563Z,1.70
2019-02-12T03:29:54.201Z,2.30
2019-02-12T03:32:24.597Z,2.00
2019-02-12T03:34:55.060Z,2.07
2019-02-12T03:37:25.383Z,1.93
2019-02-12T03:39:55.796Z,2.10
2019-02-12T03:42:26.157Z,1.47
2019-02-12T03:44:56.637Z,2.17
2019-02-12T03:47:27.277Z,2.10
2019-02-12T03:49:58.054Z,1.63
2019-02-12T03:52:28.567Z,1.67
2019-02-12T03:54:58.947Z,2.93
2019-02-12T03:57:29.280Z,2.37
2019-02-12T03:59:59.944Z,1.90
2019-02-12T04:02:30.327Z,2.30
2019-02-12T04:05:00.940Z,1.80
2019-02-12T04:07:31.299Z,1.80
2019-02-12T04:10:01.795Z,1.63
2019-02-12T04:12:33.302Z,2.00
2019-02-12T04:15:03.805Z,2.10
2019-02-12T04:17:34.127Z,1.83
2019-02-12T04:20:06.183Z,1.70
2019-02-12T04:22:36.554Z,1.70
2019-02-12T04:25:07.216Z,2.20
2019-02-12T04:27:37.966Z,2.00
2019-02-12T04:30:08.691Z,1.63
2019-02-12T04:32:39.522Z,2.20
2019-02-12T04:35:09.923Z,2.27
2019-02-12T04:37:40.325Z,1.83
2019-02-12T04:40:11.373Z,2.23
2019-02-12T04:42:41.689Z,2.60
2019-02-12T04:45:12.218Z,2.10
2019-02-12T04:47:42.568Z,2.20
2019-02-12T04:50:14.123Z,2.10
2019-02-12T04:52:44.497Z,2.10
2019-02-12T04:55:14.947Z,1.90
2019-02-12T04:57:45.360Z,2.17
2019-02-12T05:00:16.498Z,2.23
2019-02-12T05:02:46.851Z,1.87
2019-02-12T05:05:17.631Z,2.60
2019-02-12T05:07:47.992Z,2.13
2019-02-12T05:10:20.687Z,2.67
2019-02-12T05:12:51.495Z,2.13
2019-02-12T05:15:21.905Z,2.50
2019-02-12T05:17:52.521Z,2.13
2019-02-12T05:20:22.911Z,2.90
2019-02-12T05:22:53.269Z,2.33
2019-02-12T05:25:23.676Z,2.60
2019-02-12T05:27:54.025Z,2.30
2019-02-12T05:30:24.743Z,2.17
2019-02-12T05:32:55.115Z,2.13
2019-02-12T05:35:25.564Z,3.00
2019-02-12T05:37:55.905Z,3.07
2019-02-12T05:40:26.297Z,2.83
2019-02-12T05:42:56.721Z,1.90
2019-02-12T05:45:27.119Z,3.10
2019-02-12T05:47:57.605Z,3.00
2019-02-12T05:50:29.767Z,3.53
2019-02-12T05:53:00.107Z,3.20
2019-02-12T05:55:30.608Z,3.73
2019-02-12T05:58:01.664Z,3.63
2019-02-12T06:00:33.933Z,4.23
2019-02-12T06:03:04.356Z,4.00
2019-02-12T06:05:35.151Z,3.93
2019-02-12T06:08:05.623Z,3.13
2019-02-12T06:10:36.097Z,3.83
2019-02-12T06:13:07.078Z,4.97
2019-02-12T06:15:37.419Z,4.80
2019-02-12T06:18:07.777Z,4.63
2019-02-12T06:20:38.199Z,4.10
2019-02-12T06:23:08.657Z,4.80
2019-02-12T06:25:39.181Z,5.93
2019-02-12T06:28:09.829Z,4.73
2019-02-12T06:30:44.055Z,5.40
2019-02-12T06:33:14.725Z,6.27
2019-02-12T06:35:45.889Z,7.23
2019-02-12T06:38:16.286Z,5.90
2019-02-12T06:40:46.650Z,5.63
2019-02-12T06:43:17.065Z,6.80
2019-02-12T06:45:47.447Z,7.23
2019-02-12T06:48:17.963Z,6.93
2019-02-12T06:50:48.329Z,6.63
2019-02-12T06:53:18.979Z,8.00
2019-02-12T06:55:49.518Z,7.13
2019-02-12T06:58:20.247Z,7.37
2019-02-12T07:00:52.218Z,8.10
2019-02-12T07:03:29.703Z,5.43
2019-02-12T07:06:16.830Z,5.70
2019-02-12T07:09:11.357Z,3.70
2019-02-12T07:12:04.591Z,3.30
2019-02-12T07:14:58.507Z,4.03
2019-02-12T07:18:02.624Z,5.57
2019-02-12T07:21:12.703Z,4.53
2019-02-12T07:24:36.140Z,3.00
2019-02-12T07:27:50.098Z,4.63
2019-02-12T07:31:13.895Z,3.90
2019-02-12T07:34:16.916Z,4.17
2019-02-12T07:37:15.843Z,3.67
2019-02-12T07:40:09.355Z,3.00
2019-02-12T07:43:19.493Z,3.17
2019-02-12T07:46:25.044Z,3.57
2019-02-12T07:49:42.553Z,3.53
2019-02-12T07:52:56.931Z,3.33
2019-02-12T07:56:01.631Z,3.63
2019-02-12T07:58:58.716Z,3.47
2019-02-12T08:02:19.795Z,3.60
2019-02-12T08:05:14.755Z,3.63
2019-02-12T08:08:32.151Z,3.17
2019-02-12T08:11:38.779Z,3.50
2019-02-12T08:14:32.771Z,3.27
2019-02-12T08:17:40.481Z,2.93
2019-02-12T08:20:51.022Z,2.70
2019-02-12T08:24:04.809Z,3.30
2019-02-12T08:26:58.104Z,2.93
2019-02-12T08:29:54.095Z,2.77
2019-02-12T08:32:44.391Z,3.40
2019-02-12T08:35:57.191Z,2.63
2019-02-12T08:39:08.534Z,3.07
2019-02-12T08:42:14.745Z,2.60
2019-02-12T08:45:20.879Z,2.17
2019-02-12T08:48:31.133Z,3.07
2019-02-12T08:51:25.321Z,3.47
2019-02-12T08:54:16.338Z,3.13
2019-02-12T08:57:24.868Z,2.03
2019-02-12T09:00:33.658Z,3.93
2019-02-12T09:03:48.303Z,2.03
2019-02-12T09:06:28.810Z,2.03
2019-02-12T09:09:42.203Z,2.30
2019-02-12T09:13:08.725Z,1.50
2019-02-12T09:16:27.705Z,5.40
2019-02-12T09:19:22.603Z,2.07
2019-02-12T09:22:38.874Z,2.60
2019-02-12T09:25:46.033Z,2.63
2019-02-12T09:28:57.221Z,1.80
2019-02-12T09:32:01.354Z,2.07
2019-02-12T09:35:06.466Z,2.77
2019-02-12T09:38:10.533Z,2.47
2019-02-12T09:41:26.886Z,2.40
2019-02-12T09:44:46.954Z,3.33
2019-02-12T09:47:48.822Z,2.43
2019-02-12T09:51:02.285Z,2.93
2019-02-12T09:54:26.158Z,3.50
2019-02-12T09:57:17.872Z,2.60
2019-02-12T10:00:33.388Z,2.53
2019-02-12T10:03:45.970Z,3.03
2019-02-12T10:06:46.639Z,2.23
2019-02-12T10:09:51.762Z,3.03
2019-02-12T10:13:04.706Z,2.57
2019-02-12T10:16:00.663Z,2.93
2019-02-12T10:19:16.604Z,3.23
2019-02-12T10:22:49.114Z,3.27
2019-02-12T10:25:40.885Z,3.27
2019-02-12T10:28:54.690Z,2.67
2019-02-12T10:31:42.594Z,3.90
2019-02-12T10:34:13.498Z,2.30
2019-02-12T10:36:43.897Z,4.10
2019-02-12T10:39:17.536Z,2.77
2019-02-12T10:41:47.850Z,3.37
2019-02-12T10:44:18.286Z,3.27
2019-02-12T10:46:48.634Z,3.83
2019-02-12T10:49:19.023Z,2.00
2019-02-12T10:51:50.984Z,1.83
2019-02-12T10:54:27.795Z,2.00
2019-02-12T10:56:53.698Z,2.10
2019-02-12T10:59:24.141Z,1.80
2019-02-12T11:01:54.510Z,1.70
2019-02-12T11:04:24.930Z,2.03
2019-02-12T11:06:55.408Z,2.10
2019-02-12T11:09:25.858Z,2.80
2019-02-12T11:11:56.401Z,2.50
2019-02-12T11:14:27.118Z,2.60
2019-02-12T11:16:57.600Z,3.83
2019-02-12T11:19:28.176Z,2.70
2019-02-12T11:21:58.614Z,2.33
2019-02-12T11:24:35.478Z,2.97
2019-02-12T11:27:01.058Z,3.17
2019-02-12T11:29:31.418Z,2.70
2019-02-12T11:32:01.819Z,2.93
2019-02-12T11:34:32.317Z,2.73
2019-02-12T11:37:03.160Z,2.97
2019-02-12T11:39:33.513Z,3.97
2019-02-12T11:42:03.916Z,2.43
2019-02-12T11:44:34.358Z,2.97
2019-02-12T11:47:05.157Z,3.03
2019-02-12T11:49:35.679Z,3.13
2019-02-12T11:52:06.086Z,2.37
2019-02-12T11:54:43.600Z,3.27
2019-02-12T11:57:09.271Z,3.23
2019-02-12T11:59:40.595Z,3.43
2019-02-12T12:02:11.017Z,2.97
2019-02-12T12:04:41.658Z,2.90
2019-02-12T12:07:12.303Z,3.40
2019-02-12T12:09:42.841Z,3.33
2019-02-12T12:12:13.263Z,3.07
2019-02-12T12:14:43.984Z,3.80
2019-02-12T12:17:14.403Z,3.33
2019-02-12T12:19:44.882Z,3.87
2019-02-12T12:22:15.358Z,3.03
2019-02-12T12:24:51.473Z,4.07
2019-02-12T12:27:17.939Z,3.97
2019-02-12T12:29:48.332Z,3.97
2019-02-12T12:32:19.290Z,3.60
2019-02-12T12:34:49.921Z,4.30
2019-02-12T12:37:20.341Z,3.70
2019-02-12T12:39:51.794Z,4.13
2019-02-12T12:42:22.235Z,4.17
2019-02-12T12:44:52.685Z,3.43
2019-02-12T12:47:23.109Z,4.03
2019-02-12T12:49:53.630Z,4.27
2019-02-12T12:52:24.231Z,3.60
2019-02-12T12:54:59.713Z,3.87
2019-02-12T12:57:26.788Z,3.40
2019-02-12T12:59:58.383Z,3.67
2019-02-12T13:02:29.243Z,3.73
2019-02-12T13:04:59.641Z,3.67
2019-02-12T13:07:30.811Z,3.47
2019-02-12T13:10:01.315Z,4.23
2019-02-12T13:12:34.440Z,3.37
2019-02-12T13:15:05.674Z,3.63
2019-02-12T13:17:36.056Z,3.00
2019-02-12T13:20:08.448Z,4.37
2019-02-12T13:22:38.820Z,4.23
2019-02-12T13:25:10.666Z,3.57
2019-02-12T13:27:45.110Z,4.13
2019-02-12T13:30:16.305Z,4.77
2019-02-12T13:32:46.713Z,3.73
2019-02-12T13:35:17.280Z,4.20
2019-02-12T13:37:47.664Z,3.87
2019-02-12T13:40:18.528Z,4.30
2019-02-12T13:42:48.960Z,4.83
2019-02-12T13:45:19.351Z,4.20
2019-02-12T13:47:49.898Z,5.03
2019-02-12T13:50:20.450Z,6.57
2019-02-12T13:52:51.824Z,4.57
2019-02-12T13:55:22.697Z,4.23
2019-02-12T13:57:53.143Z,4.33
2019-02-12T14:00:23.768Z,4.63
2019-02-12T14:02:54.379Z,3.97
2019-02-12T14:05:24.937Z,4.37
2019-02-12T14:07:55.542Z,5.43
2019-02-12T14:10:26.079Z,4.27
2019-02-12T14:12:59.866Z,3.70
2019-02-12T14:15:31.325Z,4.23
2019-02-12T14:18:01.982Z,4.07
2019-02-12T14:20:32.696Z,4.97
2019-02-12T14:23:03.171Z,4.63
2019-02-12T14:25:33.582Z,4.93
2019-02-12T14:28:04.285Z,4.87
2019-02-12T14:30:34.924Z,5.20
2019-02-12T14:33:05.327Z,4.77
2019-02-12T14:35:35.960Z,4.43
2019-02-12T14:38:06.468Z,4.13
2019-02-12T14:40:36.849Z,4.37
2019-02-12T14:43:13.857Z,3.90
2019-02-12T14:45:39.563Z,4.13
2019-02-12T14:48:09.958Z,5.40
2019-02-12T14:50:40.343Z,3.83
2019-02-12T14:53:11.447Z,4.37
2019-02-12T14:55:42.993Z,5.00
2019-02-12T14:58:13.486Z,4.73
2019-02-12T15:00:44.095Z,4.73
2019-02-12T15:03:14.692Z,4.00
2019-02-12T15:05:45.043Z,4.07
2019-02-12T15:08:15.627Z,4.17
2019-02-12T15:10:46.361Z,3.83
2019-02-12T15:13:16.809Z,5.80
2019-02-12T15:15:47.245Z,4.57
2019-02-12T15:18:17.693Z,5.07
2019-02-12T15:20:48.682Z,5.50
2019-02-12T15:23:19.179Z,4.37
2019-02-12T15:25:49.800Z,4.70
2019-02-12T15:28:20.503Z,4.90
2019-02-12T15:30:51.617Z,4.60
2019-02-12T15:33:21.981Z,5.27
2019-02-12T15:35:52.553Z,5.07
2019-02-12T15:38:23.006Z,4.77
2019-02-12T15:40:53.395Z,4.50
2019-02-12T15:43:24.183Z,5.10
2019-02-12T15:45:54.596Z,5.07
2019-02-12T15:48:25.271Z,4.50
2019-02-12T15:50:55.771Z,4.90
2019-02-12T15:53:26.126Z,4.37
2019-02-12T15:55:56.501Z,4.70
2019-02-12T15:58:28.259Z,4.50
2019-02-12T16:00:59.292Z,4.43
2019-02-12T16:03:29.935Z,4.20
2019-02-12T16:06:00.401Z,4.37
2019-02-12T16:08:32.123Z,4.27
2019-02-12T16:11:02.584Z,4.33
2019-02-12T16:13:34.634Z,5.00
2019-02-12T16:16:05.748Z,4.77
2019-02-12T16:18:37.064Z,5.93
2019-02-12T16:21:07.609Z,5.07
2019-02-12T16:23:38.012Z,5.40
2019-02-12T16:26:08.689Z,5.00
2019-02-12T16:28:40.354Z,3.87
2019-02-12T16:31:10.955Z,5.37
2019-02-12T16:33:41.293Z,3.50
2019-02-12T16:36:11.773Z,5.07
2019-02-12T16:38:42.135Z,6.10
2019-02-12T16:41:12.546Z,4.23
2019-02-12T16:43:43.342Z,4.87
2019-02-12T16:46:17.439Z,4.20
2019-02-12T16:48:49.678Z,5.73
2019-02-12T16:51:20.091Z,5.40
2019-02-12T16:53:50.459Z,6.17
2019-02-12T16:56:21.111Z,4.50
2019-02-12T16:58:51.866Z,5.07
2019-02-12T17:01:23.382Z,5.30
2019-02-12T17:03:54.221Z,5.73
2019-02-12T17:06:24.683Z,5.20
2019-02-12T17:08:55.297Z,5.50
2019-02-12T17:11:25.638Z,5.20
2019-02-12T17:13:56.281Z,6.07
2019-02-12T17:16:26.868Z,5.13
2019-02-12T17:18:57.281Z,5.50
2019-02-12T17:21:27.923Z,5.33
2019-02-12T17:23:58.459Z,4.93
2019-02-12T17:26:28.993Z,4.73
2019-02-12T17:28:59.327Z,4.77
2019-02-12T17:31:29.707Z,3.97
2019-02-12T17:34:00.186Z,3.80
2019-02-12T17:36:33.622Z,3.57
2019-02-12T17:39:05.729Z,4.20
2019-02-12T17:41:36.227Z,3.27
2019-02-12T17:44:06.543Z,6.10
2019-02-12T17:46:37.100Z,4.13
2019-02-12T17:49:07.963Z,4.30
2019-02-12T17:51:38.353Z,4.23
2019-02-12T17:54:09.422Z,4.40
2019-02-12T17:56:39.902Z,5.60
2019-02-12T17:59:10.388Z,5.40
2019-02-12T18:01:40.717Z,5.37
2019-02-12T18:04:11.710Z,4.90
2019-02-12T18:06:42.102Z,5.67
2019-02-12T18:09:12.510Z,4.90
2019-02-12T18:11:42.962Z,4.77
2019-02-12T18:14:13.437Z,4.63
2019-02-12T18:16:43.757Z,4.27
2019-02-12T18:19:14.363Z,6.80
2019-02-12T18:21:44.803Z,6.17
2019-02-12T18:24:15.221Z,5.37
2019-02-12T18:26:45.642Z,4.57
2019-02-12T18:29:16.553Z,5.27
2019-02-12T18:31:47.040Z,4.77
2019-02-12T18:34:17.442Z,5.53
2019-02-12T18:36:47.910Z,6.40
2019-02-12T18:39:19.237Z,4.43
2019-02-12T18:41:50.070Z,6.07
2019-02-12T18:44:20.452Z,5.83
2019-02-12T18:46:51.020Z,6.13
2019-02-12T18:49:21.504Z,6.70
2019-02-12T18:51:52.182Z,6.27
2019-02-12T18:54:23.012Z,6.23
2019-02-12T18:56:55.128Z,7.47
2019-02-12T18:59:25.901Z,6.93
2019-02-12T19:01:56.343Z,7.90
2019-02-12T19:04:27.101Z,10.97
2019-02-12T19:06:57.499Z,8.17
2019-02-12T19:09:28.949Z,9.07
2019-02-12T19:11:59.331Z,9.80
2019-02-12T19:14:29.706Z,10.57
2019-02-12T19:17:00.367Z,11.37
2019-02-12T19:19:30.810Z,11.63
2019-02-12T19:22:01.521Z,12.00
2019-02-12T19:24:32.139Z,12.73
2019-02-12T19:27:03.217Z,13.07
2019-02-12T19:29:33.630Z,13.07
2019-02-12T19:32:04.221Z,13.10
2019-02-12T19:34:35.081Z,14.33
2019-02-12T19:37:05.877Z,14.23
2019-02-12T19:39:36.778Z,18.00
2019-02-12T19:42:07.118Z,16.00
2019-02-12T19:44:37.756Z,17.07
2019-02-12T19:47:08.135Z,18.17
2019-02-12T19:49:38.513Z,16.60
2019-02-12T19:52:08.912Z,17.73
2019-02-12T19:54:39.975Z,15.73
2019-02-12T19:57:10.822Z,17.97
2019-02-12T19:59:41.411Z,32.97
2019-02-12T20:02:12.082Z,15.80
2019-02-12T20:04:43.239Z,17.47
2019-02-12T20:07:13.723Z,15.57
2019-02-12T20:09:44.381Z,16.70
2019-02-12T20:12:14.903Z,16.43
2019-02-12T20:14:45.687Z,16.23
2019-02-12T20:17:16.223Z,15.73
2019-02-12T20:19:46.673Z,15.73
2019-02-12T20:22:17.058Z,15.00
2019-02-12T20:24:48.477Z,15.47
2019-02-12T20:27:18.862Z,15.57
2019-02-12T20:29:49.586Z,16.20
2019-02-12T20:32:19.996Z,15.97
2019-02-12T20:34:50.810Z,15.37
2019-02-12T20:37:21.432Z,15.20
2019-02-12T20:39:53.147Z,17.10
2019-02-12T20:42:23.536Z,15.73
2019-02-12T20:44:53.952Z,19.30
2019-02-12T20:47:24.391Z,33.50
2019-02-12T20:49:55.150Z,20.97
2019-02-12T20:52:25.739Z,18.83
2019-02-12T20:54:56.345Z,17.53
2019-02-12T20:57:27.323Z,16.87
2019-02-12T20:59:57.969Z,16.93
2019-02-12T21:02:28.434Z,16.03
2019-02-12T21:04:59.169Z,16.10
2019-02-12T21:07:29.647Z,16.63
2019-02-12T21:10:00.034Z,16.20
2019-02-12T21:12:30.545Z,17.03
2019-02-12T21:15:01.164Z,16.43
2019-02-12T21:17:31.593Z,17.33
2019-02-12T21:20:02.346Z,16.13
2019-02-12T21:22:32.942Z,16.63
2019-02-12T21:25:03.363Z,16.50
2019-02-12T21:27:34.176Z,16.97
2019-02-12T21:30:05.493Z,16.70
2019-02-12T21:32:35.965Z,18.00
2019-02-12T21:35:07.289Z,17.63
2019-02-12T21:37:37.871Z,18.83
2019-02-12T21:40:11.481Z,18.30
2019-02-12T21:42:42.019Z,18.27
2019-02-12T21:45:14.023Z,21.63
2019-02-12T21:47:44.923Z,18.63
2019-02-12T21:50:16.119Z,18.37
2019-02-12T21:52:47.067Z,17.50
2019-02-12T21:55:17.505Z,17.03
2019-02-12T21:57:48.167Z,16.50
2019-02-12T22:00:18.553Z,17.00
2019-02-12T22:02:49.073Z,17.40
2019-02-12T22:05:19.771Z,16.80
2019-02-12T22:07:50.105Z,17.70
2019-02-12T22:10:20.536Z,17.63
2019-02-12T22:12:51.029Z,17.00
2019-02-12T22:15:21.608Z,16.07
2019-02-12T22:17:52.203Z,17.57
2019-02-12T22:20:22.894Z,17.93
2019-02-12T22:22:53.343Z,18.47
2019-02-12T22:25:23.749Z,19.33
2019-02-12T22:27:54.513Z,20.03
2019-02-12T22:30:25.065Z,20.23
2019-02-12T22:32:55.633Z,20.00
2019-02-12T22:35:26.685Z,20.20
2019-02-12T22:37:57.242Z,20.77
2019-02-12T22:40:27.652Z,21.70
2019-02-12T22:42:58.021Z,23.97
2019-02-12T22:45:28.535Z,19.80
2019-02-12T22:47:59.155Z,21.30
2019-02-12T22:50:30.169Z,20.73
2019-02-12T22:53:00.581Z,19.37
2019-02-12T22:55:31.397Z,19.97
2019-02-12T22:58:01.948Z,21.83
2019-02-12T23:00:55.786Z,20.47
2019-02-12T23:03:26.802Z,19.37
2019-02-12T23:05:57.546Z,20.67
2019-02-12T23:08:28.414Z,19.47
2019-02-12T23:10:58.865Z,19.70
2019-02-12T23:13:29.514Z,19.17
2019-02-12T23:16:00.011Z,17.57
2019-02-12T23:18:30.519Z,18.03
2019-02-12T23:21:01.222Z,16.33
2019-02-12T23:23:33.046Z,17.53
2019-02-12T23:26:03.710Z,17.70
2019-02-12T23:28:34.425Z,18.07
2019-02-12T23:31:04.880Z,18.33
2019-02-12T23:33:36.975Z,17.87
2019-02-12T23:36:07.745Z,18.07
2019-02-12T23:38:38.327Z,16.73
2019-02-12T23:41:08.763Z,18.43
2019-02-12T23:43:39.337Z,17.40
2019-02-12T23:46:09.744Z,16.77
2019-02-12T23:48:40.281Z,17.80
2019-02-12T23:51:10.824Z,15.67
2019-02-12T23:53:41.429Z,16.47
2019-02-12T23:56:12.270Z,16.27
2019-02-12T23:58:43.149Z,14.73
